createdAt,value
2018-11-23T00:00:44.181Z,6.30
2018-11-23T00:03:13.971Z,6.40
2018-11-23T00:05:43.745Z,6.40
2018-11-23T00:08:13.388Z,6.40
2018-11-23T00:10:42.989Z,6.40
2018-11-23T00:13:12.870Z,6.40
2018-11-23T00:15:42.516Z,6.30
2018-11-23T00:18:12.382Z,6.30
2018-11-23T00:20:42.140Z,6.30
2018-11-23T00:23:11.956Z,6.30
2018-11-23T00:25:42.197Z,6.30
2018-11-23T00:28:11.444Z,6.30
2018-11-23T00:30:41.134Z,6.20
2018-11-23T00:33:10.785Z,6.20
2018-11-23T00:35:40.438Z,6.20
2018-11-23T00:38:10.225Z,6.20
2018-11-23T00:40:39.933Z,6.20
2018-11-23T00:43:09.689Z,6.30
2018-11-23T00:45:43.120Z,6.30
2018-11-23T00:48:09.263Z,6.30
2018-11-23T00:50:38.973Z,6.20
2018-11-23T00:53:08.758Z,6.20
2018-11-23T00:55:38.577Z,6.20
2018-11-23T00:58:08.355Z,6.30
2018-11-23T01:00:38.234Z,6.30
2018-11-23T01:03:08.020Z,6.30
2018-11-23T01:05:37.867Z,6.30
2018-11-23T01:08:07.529Z,6.20
2018-11-23T01:10:37.464Z,6.20
2018-11-23T01:13:07.448Z,6.20
2018-11-23T01:15:37.196Z,6.30
2018-11-23T01:18:06.943Z,6.30
2018-11-23T01:20:36.738Z,6.30
2018-11-23T01:23:08.152Z,6.30
2018-11-23T01:25:39.521Z,6.30
2018-11-23T01:28:09.189Z,6.30
2018-11-23T01:30:38.835Z,6.30
2018-11-23T01:33:08.651Z,6.40
2018-11-23T01:35:38.410Z,6.40
2018-11-23T01:38:08.160Z,6.40
2018-11-23T01:40:38.794Z,6.40
2018-11-23T01:43:07.893Z,6.30
2018-11-23T01:45:37.757Z,6.40
2018-11-23T01:48:07.523Z,6.40
2018-11-23T01:50:37.278Z,6.40
2018-11-23T01:53:07.033Z,6.40
2018-11-23T01:55:36.801Z,6.40
2018-11-23T01:58:06.464Z,6.40
2018-11-23T02:00:36.176Z,6.40
2018-11-23T02:03:06.078Z,6.40
2018-11-23T02:05:35.800Z,6.40
2018-11-23T02:08:05.579Z,6.40
2018-11-23T02:10:35.207Z,6.40
2018-11-23T02:13:04.986Z,6.40
2018-11-23T02:15:34.624Z,6.40
2018-11-23T02:18:04.241Z,6.40
2018-11-23T02:20:34.001Z,6.40
2018-11-23T02:23:03.749Z,6.40
2018-11-23T02:25:33.896Z,6.40
2018-11-23T02:28:03.565Z,6.40
2018-11-23T02:30:33.257Z,6.40
2018-11-23T02:33:02.917Z,6.40
2018-11-23T02:35:32.711Z,6.40
2018-11-23T02:38:02.381Z,6.40
2018-11-23T02:40:32.053Z,6.30
2018-11-23T02:43:01.797Z,6.40
2018-11-23T02:45:31.453Z,6.40
2018-11-23T02:48:01.258Z,6.40
2018-11-23T02:50:30.993Z,6.40
2018-11-23T02:53:00.685Z,6.40
2018-11-23T02:55:30.454Z,6.40
2018-11-23T02:58:00.112Z,6.40
2018-11-23T03:00:30.021Z,6.40
2018-11-23T03:02:59.736Z,6.50
2018-11-23T03:05:29.453Z,6.50
2018-11-23T03:07:59.214Z,6.40
2018-11-23T03:10:28.973Z,6.40
2018-11-23T03:12:58.730Z,6.40
2018-11-23T03:15:28.494Z,6.40
2018-11-23T03:17:58.176Z,6.40
2018-11-23T03:20:27.868Z,6.40
2018-11-23T03:22:57.504Z,6.40
2018-11-23T03:25:27.181Z,6.40
2018-11-23T03:27:56.730Z,6.40
2018-11-23T03:30:26.450Z,6.50
2018-11-23T03:32:56.098Z,6.50
2018-11-23T03:35:28.143Z,6.40
2018-11-23T03:38:00.728Z,6.40
2018-11-23T03:40:32.966Z,6.40
2018-11-23T03:43:04.836Z,6.40
2018-11-23T03:45:34.643Z,6.40
2018-11-23T03:48:04.496Z,6.40
2018-11-23T03:50:34.264Z,6.40
2018-11-23T03:53:04.018Z,6.40
2018-11-23T03:55:33.680Z,6.30
2018-11-23T03:58:03.545Z,6.40
2018-11-23T04:00:33.206Z,6.40
2018-11-23T04:03:02.885Z,6.40
2018-11-23T04:05:32.623Z,6.30
2018-11-23T04:08:02.298Z,6.30
2018-11-23T04:10:31.990Z,6.30
2018-11-23T04:13:01.684Z,6.30
2018-11-23T04:15:31.618Z,6.30
2018-11-23T04:18:01.278Z,6.30
2018-11-23T04:20:30.963Z,6.30
2018-11-23T04:23:00.641Z,6.30
2018-11-23T04:25:30.296Z,6.30
2018-11-23T04:28:00.070Z,6.30
2018-11-23T04:30:29.718Z,6.30
2018-11-23T04:32:59.570Z,6.30
2018-11-23T04:35:29.238Z,6.20
2018-11-23T04:37:59.023Z,6.20
2018-11-23T04:40:28.660Z,6.20
2018-11-23T04:42:58.371Z,6.30
2018-11-23T04:45:28.242Z,6.30
2018-11-23T04:47:57.993Z,6.30
2018-11-23T04:50:27.810Z,6.30
2018-11-23T04:52:57.732Z,6.30
2018-11-23T04:55:27.437Z,6.30
2018-11-23T04:57:57.298Z,6.20
2018-11-23T05:00:27.158Z,6.30
2018-11-23T05:02:56.935Z,6.20
2018-11-23T05:05:26.557Z,6.20
2018-11-23T05:07:56.160Z,6.30
2018-11-23T05:10:25.903Z,6.30
2018-11-23T05:12:55.722Z,6.30
2018-11-23T05:15:25.473Z,6.30
2018-11-23T05:17:55.135Z,6.30
2018-11-23T05:20:24.806Z,6.30
2018-11-23T05:22:54.510Z,6.30
2018-11-23T05:25:24.134Z,6.30
2018-11-23T05:27:53.918Z,6.30
2018-11-23T05:30:23.692Z,6.20
2018-11-23T05:32:53.562Z,6.30
2018-11-23T05:35:23.309Z,6.30
2018-11-23T05:37:53.174Z,6.30
2018-11-23T05:40:22.825Z,6.30
2018-11-23T05:42:52.952Z,6.20
2018-11-23T05:45:23.173Z,6.30
2018-11-23T05:47:52.949Z,6.30
2018-11-23T05:50:24.794Z,6.20
2018-11-23T05:52:54.602Z,6.20
2018-11-23T05:55:24.333Z,6.20
2018-11-23T05:57:54.041Z,6.30
2018-11-23T06:00:25.161Z,6.30
2018-11-23T06:02:55.086Z,6.30
2018-11-23T06:05:24.847Z,6.30
2018-11-23T06:07:55.177Z,6.40
2018-11-23T06:10:24.965Z,6.40
2018-11-23T06:12:54.795Z,6.40
2018-11-23T06:15:25.329Z,6.30
2018-11-23T06:17:55.133Z,6.30
2018-11-23T06:20:26.086Z,6.30
2018-11-23T06:22:56.365Z,6.40
2018-11-23T06:25:33.521Z,6.30
2018-11-23T06:28:03.277Z,6.30
2018-11-23T06:30:32.961Z,6.30
2018-11-23T06:33:13.595Z,6.30
2018-11-23T06:35:43.382Z,6.30
2018-11-23T06:38:13.076Z,6.30
2018-11-23T06:40:43.073Z,6.30
2018-11-23T06:43:12.711Z,6.30
2018-11-23T06:45:44.167Z,6.30
2018-11-23T06:48:13.935Z,6.30
2018-11-23T06:50:44.101Z,6.30
2018-11-23T06:53:13.905Z,6.40
2018-11-23T06:55:43.694Z,6.30
2018-11-23T06:58:13.428Z,6.30
2018-11-23T07:00:43.269Z,6.30
2018-11-23T07:03:12.998Z,6.30
2018-11-23T07:05:42.629Z,6.30
2018-11-23T07:08:12.871Z,6.30
2018-11-23T07:10:42.733Z,6.30
2018-11-23T07:13:12.502Z,6.30
2018-11-23T07:15:42.359Z,6.40
2018-11-23T07:18:12.133Z,6.30
2018-11-23T07:20:42.079Z,6.40
2018-11-23T07:23:11.759Z,6.30
2018-11-23T07:25:41.987Z,6.30
2018-11-23T07:28:15.753Z,6.40
2018-11-23T07:30:41.445Z,6.40
2018-11-23T07:33:11.057Z,6.40
2018-11-23T07:35:40.715Z,6.40
2018-11-23T07:38:10.522Z,6.40
2018-11-23T07:40:51.609Z,6.30
2018-11-23T07:43:21.526Z,6.40
2018-11-23T07:45:51.299Z,6.40
2018-11-23T07:48:20.992Z,6.40
2018-11-23T07:50:50.719Z,6.40
2018-11-23T07:53:20.513Z,6.40
2018-11-23T07:55:50.167Z,6.40
2018-11-23T07:58:19.850Z,6.50
2018-11-23T08:00:49.595Z,6.50
2018-11-23T08:03:19.409Z,6.60
2018-11-23T08:05:49.162Z,6.60
2018-11-23T08:08:18.937Z,6.70
2018-11-23T08:10:47.566Z,6.60
2018-11-23T08:13:17.301Z,6.70
2018-11-23T08:15:47.282Z,6.70
2018-11-23T08:18:17.027Z,6.70
2018-11-23T08:20:46.715Z,6.70
2018-11-23T08:23:16.370Z,6.70
2018-11-23T08:25:46.229Z,6.70
2018-11-23T08:28:15.985Z,6.70
2018-11-23T08:30:45.736Z,6.60
2018-11-23T08:33:15.505Z,6.60
2018-11-23T08:35:45.190Z,6.60
2018-11-23T08:38:14.931Z,6.70
2018-11-23T08:40:44.750Z,6.60
2018-11-23T08:43:14.610Z,6.60
2018-11-23T08:45:44.265Z,6.60
2018-11-23T08:48:14.073Z,6.70
2018-11-23T08:50:43.889Z,6.70
2018-11-23T08:53:13.569Z,6.70
2018-11-23T08:55:43.157Z,6.70
2018-11-23T08:58:12.705Z,6.70
2018-11-23T09:00:42.357Z,6.80
2018-11-23T09:03:12.037Z,6.80
2018-11-23T09:05:41.604Z,6.80
2018-11-23T09:08:11.306Z,6.70
2018-11-23T09:10:41.021Z,6.80
2018-11-23T09:13:10.926Z,6.80
2018-11-23T09:15:40.686Z,6.80
2018-11-23T09:18:10.655Z,6.90
2018-11-23T09:20:40.408Z,6.90
2018-11-23T09:23:10.379Z,6.80
2018-11-23T09:25:40.128Z,6.80
2018-11-23T09:28:09.776Z,6.70
2018-11-23T09:30:39.400Z,6.80
2018-11-23T09:33:09.157Z,6.80
2018-11-23T09:35:39.042Z,6.80
2018-11-23T09:38:08.890Z,6.80
2018-11-23T09:40:38.865Z,6.90
2018-11-23T09:43:08.623Z,6.80
2018-11-23T09:45:38.378Z,6.80
2018-11-23T09:48:08.430Z,6.90
2018-11-23T09:50:38.157Z,6.80
2018-11-23T09:53:07.949Z,6.80
2018-11-23T09:55:38.159Z,6.90
2018-11-23T09:58:07.921Z,6.90
2018-11-23T10:00:38.172Z,6.90
2018-11-23T10:03:08.305Z,6.90
2018-11-23T10:05:38.061Z,6.90
2018-11-23T10:08:08.319Z,6.90
2018-11-23T10:10:38.072Z,6.90
2018-11-23T10:13:07.798Z,7.00
2018-11-23T10:15:37.515Z,7.00
2018-11-23T10:18:07.312Z,7.00
2018-11-23T10:20:37.361Z,7.00
2018-11-23T10:23:07.149Z,7.00
2018-11-23T10:25:37.146Z,7.00
2018-11-23T10:28:06.878Z,7.10
2018-11-23T10:30:37.181Z,7.10
2018-11-23T10:33:07.597Z,7.10
2018-11-23T10:35:37.334Z,7.10
2018-11-23T10:38:07.557Z,7.10
2018-11-23T10:40:38.717Z,7.20
2018-11-23T10:43:08.727Z,7.20
2018-11-23T10:45:38.887Z,7.20
2018-11-23T10:48:09.561Z,7.20
2018-11-23T10:50:40.832Z,7.20
2018-11-23T10:53:10.818Z,7.20
2018-11-23T10:55:40.448Z,7.10
2018-11-23T10:58:10.267Z,7.10
2018-11-23T11:00:45.214Z,7.10
2018-11-23T11:03:34.363Z,7.10
2018-11-23T11:06:11.342Z,7.10
2018-11-23T11:08:41.689Z,7.00
2018-11-23T11:11:13.772Z,7.10
2018-11-23T11:13:41.436Z,7.10
2018-11-23T11:16:11.169Z,7.10
2018-11-23T11:18:41.024Z,7.20
2018-11-23T11:21:10.844Z,7.20
2018-11-23T11:23:40.529Z,7.20
2018-11-23T11:26:10.224Z,7.20
2018-11-23T11:28:39.902Z,7.20
2018-11-23T11:31:09.645Z,7.30
2018-11-23T11:33:39.381Z,7.30
2018-11-23T11:36:08.976Z,7.30
2018-11-23T11:38:38.759Z,7.40
2018-11-23T11:41:08.554Z,7.40
2018-11-23T11:43:38.800Z,7.40
2018-11-23T11:46:08.954Z,7.40
2018-11-23T11:48:38.781Z,7.40
2018-11-23T11:51:09.041Z,7.40
2018-11-23T11:53:38.757Z,7.40
2018-11-23T11:56:08.344Z,7.40
2018-11-23T11:58:38.012Z,7.30
2018-11-23T12:01:07.901Z,7.40
2018-11-23T12:03:37.735Z,7.30
2018-11-23T12:06:07.562Z,7.30
2018-11-23T12:08:37.467Z,7.30
2018-11-23T12:11:07.633Z,7.30
2018-11-23T12:13:37.374Z,7.30
2018-11-23T12:16:07.194Z,7.20
2018-11-23T12:18:37.933Z,7.20
2018-11-23T12:21:07.655Z,7.20
2018-11-23T12:23:37.448Z,7.30
2018-11-23T12:26:07.225Z,7.30
2018-11-23T12:28:36.990Z,7.30
2018-11-23T12:31:06.731Z,7.30
2018-11-23T12:33:36.418Z,7.20
2018-11-23T12:36:06.153Z,7.30
2018-11-23T12:38:35.927Z,7.30
2018-11-23T12:41:05.747Z,7.30
2018-11-23T12:43:35.509Z,7.40
2018-11-23T12:46:05.159Z,7.40
2018-11-23T12:48:34.956Z,7.40
2018-11-23T12:51:04.697Z,7.40
2018-11-23T12:53:34.463Z,7.40
2018-11-23T12:56:04.315Z,7.40
2018-11-23T12:58:33.981Z,7.40
2018-11-23T13:01:03.679Z,7.30
2018-11-23T13:03:33.406Z,7.30
2018-11-23T13:06:03.218Z,7.40
2018-11-23T13:08:32.870Z,7.30
2018-11-23T13:11:02.654Z,7.40
2018-11-23T13:13:32.486Z,7.40
2018-11-23T13:16:02.194Z,7.40
2018-11-23T13:18:32.520Z,7.40
2018-11-23T13:21:02.174Z,7.40
2018-11-23T13:23:31.942Z,7.40
2018-11-23T13:26:01.735Z,7.30
2018-11-23T13:28:31.463Z,7.30
2018-11-23T13:31:01.149Z,7.30
2018-11-23T13:33:30.825Z,7.20
2018-11-23T13:36:00.592Z,7.20
2018-11-23T13:38:30.277Z,7.20
2018-11-23T13:40:59.961Z,7.20
2018-11-23T13:43:29.511Z,7.20
2018-11-23T13:45:59.301Z,7.20
2018-11-23T13:48:29.141Z,7.20
2018-11-23T13:50:58.898Z,7.20
2018-11-23T13:53:28.538Z,7.30
2018-11-23T13:55:58.233Z,7.30
2018-11-23T13:58:27.974Z,7.30
2018-11-23T14:00:57.655Z,7.30
2018-11-23T14:03:27.449Z,7.20
2018-11-23T14:05:57.209Z,7.20
2018-11-23T14:08:27.075Z,7.20
2018-11-23T14:10:56.826Z,7.20
2018-11-23T14:13:26.609Z,7.20
2018-11-23T14:15:56.253Z,7.20
2018-11-23T14:18:25.933Z,7.20
2018-11-23T14:20:55.721Z,7.20
2018-11-23T14:23:25.491Z,7.10
2018-11-23T14:25:55.250Z,7.10
2018-11-23T14:28:25.007Z,7.10
2018-11-23T14:30:55.192Z,7.10
2018-11-23T14:33:24.821Z,7.10
2018-11-23T14:35:54.490Z,7.10
2018-11-23T14:38:24.160Z,7.10
2018-11-23T14:40:53.833Z,7.10
2018-11-23T14:43:23.417Z,7.10
2018-11-23T14:45:53.083Z,7.10
2018-11-23T14:48:22.761Z,7.10
2018-11-23T14:50:53.506Z,7.10
2018-11-23T14:53:23.186Z,7.00
2018-11-23T14:55:52.949Z,7.10
2018-11-23T14:58:22.812Z,7.00
2018-11-23T15:00:52.841Z,7.00
2018-11-23T15:03:22.685Z,7.00
2018-11-23T15:05:52.505Z,7.00
2018-11-23T15:08:22.268Z,7.00
2018-11-23T15:10:53.044Z,7.00
2018-11-23T15:13:22.885Z,7.00
2018-11-23T15:15:52.763Z,7.00
2018-11-23T15:18:22.574Z,7.00
2018-11-23T15:20:52.480Z,7.00
2018-11-23T15:23:22.220Z,7.00
2018-11-23T15:25:51.928Z,7.00
2018-11-23T15:28:21.649Z,7.00
2018-11-23T15:30:51.414Z,7.00
2018-11-23T15:33:21.159Z,7.00
2018-11-23T15:35:51.604Z,7.00
2018-11-23T15:38:22.268Z,6.90
2018-11-23T15:40:52.029Z,6.90
2018-11-23T15:43:22.142Z,6.90
2018-11-23T15:45:51.915Z,6.90
2018-11-23T15:48:21.670Z,6.90
2018-11-23T15:50:51.385Z,6.90
2018-11-23T15:53:21.259Z,6.90
2018-11-23T15:55:50.895Z,6.90
2018-11-23T15:58:20.673Z,6.90
2018-11-23T16:00:50.421Z,6.90
2018-11-23T16:03:20.191Z,6.80
2018-11-23T16:05:49.953Z,6.80
2018-11-23T16:08:20.469Z,6.90
2018-11-23T16:10:50.269Z,6.80
2018-11-23T16:13:19.984Z,6.80
2018-11-23T16:15:49.706Z,6.90
2018-11-23T16:18:19.468Z,6.80
2018-11-23T16:20:49.163Z,6.90
2018-11-23T16:23:20.335Z,6.90
2018-11-23T16:25:50.604Z,6.90
2018-11-23T16:28:20.457Z,6.90
2018-11-23T16:30:50.968Z,6.90
2018-11-23T16:33:21.906Z,6.90
2018-11-23T16:35:51.649Z,6.80
2018-11-23T16:38:22.805Z,6.80
2018-11-23T16:40:54.937Z,6.80
2018-11-23T16:43:24.628Z,6.80
2018-11-23T16:45:54.508Z,6.80
2018-11-23T16:48:24.323Z,6.80
2018-11-23T16:50:54.095Z,6.90
2018-11-23T16:53:23.862Z,6.80
2018-11-23T16:55:53.635Z,6.80
2018-11-23T16:58:23.365Z,6.80
2018-11-23T17:00:53.019Z,6.80
2018-11-23T17:03:23.450Z,6.80
2018-11-23T17:05:54.658Z,6.90
2018-11-23T17:08:24.663Z,6.80
2018-11-23T17:10:54.618Z,6.90
2018-11-23T17:13:24.488Z,6.90
2018-11-23T17:15:54.258Z,6.90
2018-11-23T17:18:24.019Z,6.90
2018-11-23T17:20:53.736Z,6.90
2018-11-23T17:23:23.549Z,6.90
2018-11-23T17:25:53.361Z,6.90
2018-11-23T17:28:23.217Z,6.80
2018-11-23T17:30:52.763Z,6.90
2018-11-23T17:33:22.462Z,6.80
2018-11-23T17:35:52.189Z,6.80
2018-11-23T17:38:22.073Z,6.80
2018-11-23T17:40:51.676Z,6.80
2018-11-23T17:43:21.325Z,6.90
2018-11-23T17:45:51.195Z,6.80
2018-11-23T17:48:20.748Z,6.90
2018-11-23T17:50:50.360Z,6.80
2018-11-23T17:53:20.110Z,6.80
2018-11-23T17:55:49.676Z,6.80
2018-11-23T17:58:19.060Z,6.80
2018-11-23T18:00:48.413Z,6.80
2018-11-23T18:03:17.774Z,6.80
2018-11-23T18:05:47.586Z,6.80
2018-11-23T18:08:17.051Z,6.80
2018-11-23T18:10:46.814Z,6.80
2018-11-23T18:13:16.415Z,6.80
2018-11-23T18:15:46.030Z,6.80
2018-11-23T18:18:15.482Z,6.80
2018-11-23T18:20:45.119Z,6.80
2018-11-23T18:23:14.558Z,6.80
2018-11-23T18:25:44.166Z,6.80
2018-11-23T18:28:13.632Z,6.80
2018-11-23T18:30:43.167Z,6.80
2018-11-23T18:33:12.681Z,6.80
2018-11-23T18:35:42.165Z,6.80
2018-11-23T18:38:11.569Z,6.80
2018-11-23T18:40:40.937Z,6.80
2018-11-23T18:43:10.353Z,6.80
2018-11-23T18:45:39.989Z,6.70
2018-11-23T18:48:09.531Z,6.70
2018-11-23T18:50:39.106Z,6.80
2018-11-23T18:53:08.471Z,6.70
2018-11-23T18:55:37.837Z,6.80
2018-11-23T18:58:07.554Z,6.70
2018-11-23T19:00:36.918Z,6.80
2018-11-23T19:03:06.493Z,6.90
2018-11-23T19:05:35.853Z,7.10
2018-11-23T19:08:05.261Z,7.10
2018-11-23T19:10:35.014Z,7.20
2018-11-23T19:13:04.582Z,7.20
2018-11-23T19:15:34.089Z,7.30
2018-11-23T19:18:03.521Z,7.20
2018-11-23T19:20:32.949Z,7.30
2018-11-23T19:23:02.629Z,7.20
2018-11-23T19:25:31.989Z,7.20
2018-11-23T19:28:01.351Z,7.20
2018-11-23T19:30:30.948Z,7.20
2018-11-23T19:33:01.633Z,7.20
2018-11-23T19:38:05.732Z,7.20
2018-11-23T19:40:35.099Z,7.20
2018-11-23T19:43:04.537Z,7.30
2018-11-23T19:45:33.941Z,7.20
2018-11-23T19:48:03.328Z,7.10
2018-11-23T19:50:32.705Z,7.10
2018-11-23T19:53:02.093Z,7.00
2018-11-23T19:55:31.471Z,7.00
2018-11-23T19:58:00.837Z,7.00
2018-11-23T20:00:30.210Z,6.90
2018-11-23T20:02:59.565Z,6.90
2018-11-23T20:05:28.938Z,6.80
2018-11-23T20:07:58.582Z,6.90
2018-11-23T20:10:28.018Z,6.90
2018-11-23T20:12:58.201Z,6.90
2018-11-23T20:15:27.580Z,6.90
2018-11-23T20:17:57.030Z,6.90
2018-11-23T20:20:26.861Z,6.90
2018-11-23T20:22:56.247Z,6.90
2018-11-23T20:25:25.625Z,6.90
2018-11-23T20:27:55.026Z,6.90
2018-11-23T20:30:24.398Z,6.90
2018-11-23T20:32:54.094Z,6.80
2018-11-23T20:35:24.173Z,6.80
2018-11-23T20:37:53.902Z,6.80
2018-11-23T20:40:24.162Z,6.80
2018-11-23T20:42:54.137Z,6.80
2018-11-23T20:45:23.884Z,6.80
2018-11-23T20:47:53.720Z,6.70
2018-11-23T20:50:23.406Z,6.70
2018-11-23T20:52:53.139Z,6.70
2018-11-23T20:55:23.161Z,6.70
2018-11-23T20:57:53.021Z,6.60
2018-11-23T21:00:22.884Z,6.60
2018-11-23T21:02:53.411Z,6.60
2018-11-23T21:05:23.380Z,6.60
2018-11-23T21:07:53.248Z,6.60
2018-11-23T21:10:26.373Z,6.60
2018-11-23T21:12:56.381Z,6.60
2018-11-23T21:15:28.828Z,6.50
2018-11-23T21:18:01.812Z,6.50
2018-11-23T21:20:31.491Z,6.50
2018-11-23T21:23:01.382Z,6.50
2018-11-23T21:25:31.013Z,6.50
2018-11-23T21:28:00.698Z,6.50
2018-11-23T21:30:30.409Z,6.50
2018-11-23T21:33:00.035Z,6.50
2018-11-23T21:35:30.085Z,6.50
2018-11-23T21:37:59.701Z,6.50
2018-11-23T21:40:29.654Z,6.50
2018-11-23T21:42:59.216Z,6.40
2018-11-23T21:45:28.973Z,6.40
2018-11-23T21:47:58.669Z,6.40
2018-11-23T21:50:28.435Z,6.50
2018-11-23T21:52:58.205Z,6.50
2018-11-23T21:55:27.875Z,6.50
2018-11-23T21:57:57.945Z,6.60
2018-11-23T22:00:27.692Z,6.60
2018-11-23T22:02:57.474Z,6.60
2018-11-23T22:05:27.311Z,6.60
2018-11-23T22:07:57.003Z,6.60
2018-11-23T22:10:26.685Z,6.60
2018-11-23T22:12:56.316Z,6.50
2018-11-23T22:15:26.330Z,6.50
2018-11-23T22:17:56.944Z,6.50
2018-11-23T22:20:26.910Z,6.50
2018-11-23T22:22:56.590Z,6.50
2018-11-23T22:25:26.215Z,6.60
2018-11-23T22:27:56.044Z,6.60
2018-11-23T22:30:29.645Z,6.60
2018-11-23T22:32:59.280Z,6.60
2018-11-23T22:35:29.852Z,6.50
2018-11-23T22:37:59.534Z,6.50
2018-11-23T22:40:29.372Z,6.60
2018-11-23T22:42:59.636Z,6.60
2018-11-23T22:45:29.399Z,6.50
2018-11-23T22:47:59.198Z,6.60
2018-11-23T22:50:28.853Z,6.50
2018-11-23T22:52:58.414Z,6.60
2018-11-23T22:55:28.021Z,6.60
2018-11-23T22:57:57.658Z,6.60
2018-11-23T23:00:32.910Z,6.60
2018-11-23T23:03:02.687Z,6.60
2018-11-23T23:05:32.434Z,6.60
2018-11-23T23:08:02.126Z,6.60
2018-11-23T23:10:32.014Z,6.50
2018-11-23T23:13:01.779Z,6.50
2018-11-23T23:15:31.640Z,6.60
2018-11-23T23:18:01.295Z,6.60
2018-11-23T23:20:31.082Z,6.60
2018-11-23T23:23:00.769Z,6.50
2018-11-23T23:25:30.434Z,6.50
2018-11-23T23:28:00.185Z,6.50
2018-11-23T23:30:29.847Z,6.50
2018-11-23T23:32:59.534Z,6.50
2018-11-23T23:35:29.228Z,6.50
2018-11-23T23:37:58.977Z,6.40
2018-11-23T23:40:28.734Z,6.50
2018-11-23T23:42:58.195Z,6.40
2018-11-23T23:45:27.885Z,6.40
2018-11-23T23:47:57.562Z,6.40
2018-11-23T23:50:27.209Z,6.40
2018-11-23T23:52:56.914Z,6.40
2018-11-23T23:55:26.581Z,6.50
2018-11-23T23:57:56.249Z,6.40
